CheckWX is a tool to help pilots better visualize weather data.  It is not intended as a substitute for an official pre-flight weather briefing.

04:56:02 UTC

CWLI METAR
Liverpool Bay Airport
Canada
Current

56 mins ago

CWLI 240400Z AUTO 05018G25KT ////SM //// BKN085 08/06 A3006
Observed
Jul-24 @ 04:00 UTC
Wind
  • 050° at 18 KTS
  • Gusting to 25 KTS
Visibility
Cloud Levels
  • Broken at 8,500' AGL
Temperature
C / 46°F
Dewpoint
C / 43°F
Humidity
87%
Altimeter
30.06" Hg
Pressure
1017.92 hPa
Previous

2 hours ago

CWLI 240300Z AUTO 05017G23KT ////SM //// FEW080 08/06 A3007
Observed
Jul-24 @ 03:00 UTC
Wind
  • 050° at 17 KTS
  • Gusting to 23 KTS
Visibility
Cloud Levels
  • Few at 8,000' AGL
Temperature
C / 46°F
Dewpoint
C / 43°F
Humidity
87%
Altimeter
30.07" Hg
Pressure
1018.32 hPa
Previous

3 hours ago

CWLI 240200Z AUTO 05021KT ////SM //// NCD 08/06 A3008
Observed
Jul-24 @ 02:00 UTC
Wind
  • 050° at 21 KTS
Visibility
Cloud Levels
  • Clear skies
Temperature
C / 46°F
Dewpoint
C / 43°F
Humidity
87%
Altimeter
30.08" Hg
Pressure
1018.62 hPa